Аэропорт: Сыктывкар. Сыктывкар

ICAO: UUYY

METAR:
2022-01-28 08:00:00
UUYY 280800Z 18003MPS 9999 BKN035 M12/M13 Q1013 R18/450345 NOSIG RMK QFE751/1001
METAR:
2022-01-28 05:00:00
TAF UUYY 280500Z 2806/2906 18003G10MPS 6000 -SN FEW011 BKN017 TEMPO 2806/2809 1000 SHSN BR BKN006 BKN011CB